x

Little Traverse Bay, Mi (45022) Wave Buoy

4:50pm - Sun 28th May 2017 All times are CDT. -5 hours from GMT.

  • Sig Wave height 0.3ft
  • Swell Direction
  • Wind
    7mph, 9mph gusts
  • Sea Temp 47°f
  • Air Temp 52°f
  • Sea Pressure 1005.9mb
  • Little Traverse Bay, Mi
  • Little Traverse Bay, Mi

More Historic Weather Station data

Upgrade to MSW Pro to gain access to the past 30 days of data for over 8000 Wavebouys and Weather Stations around the globe.

Join Pro

Comparision Forecast

View Surf forecast
   
Sun 05/28 4:50pm 0.3ft  -  7 9 mph 1005.9mb 47f 52f
4:40pm 0.3ft  -  9 9 mph 1006mb 47f 52f
4:30pm 0.3ft  -  7 9 mph 1006mb 47f 51f
4:20pm 0.3ft  -  7 9 mph 1006mb 47f 50f
4:10pm 0.3ft  -  4 7 mph 1006mb 46f 49f
4:00pm 0.3ft  -  4 7 mph 1006mb 46f 49f
3:50pm 0.3ft  -  7 7 mph 1006mb 46f 48f
3:40pm 0.3ft  -  7 7 mph 1006mb 46f 48f
3:30pm 0.3ft  -  7 9 mph 1006mb 46f 48f
3:20pm 0.3ft  -  7 9 mph 1006mb 46f 48f
3:10pm 0.3ft  -  4 7 mph 1006.3mb 46f 49f
3:00pm 0.3ft  -  4 7 mph 1006.6mb 46f 48f
2:50pm 0.7ft  -  4 7 mph 1006.7mb 46f 48f
2:40pm 0.7ft  -  4 7 mph 1006.9mb 46f 48f
2:30pm 0.7ft  -  4 7 mph 1007.2mb 46f 48f
2:20pm 0.7ft  -  4 7 mph 1007.2mb 46f 49f
2:10pm 0.7ft  -  2 4 mph 1007.6mb 46f 50f
2:00pm 0.7ft  -  4 9 mph 1007.9mb 46f 49f
1:50pm 0.7ft  -  7 9 mph 1008.1mb 46f 49f
1:40pm 0.7ft  -  4 7 mph 1008mb 46f 48f
1:30pm 0.7ft  -  4 7 mph 1008.1mb 46f 48f
1:20pm 0.7ft  -  4 7 mph 1008.2mb 46f 49f
1:10pm 0.7ft  -  4 4 mph 1008.4mb 46f 49f
1:00pm 0.7ft  -  7 9 mph 1008.3mb 46f 49f
12:50pm 0.7ft  -  7 9 mph 1008.3mb 46f 50f
12:40pm 1ft  -  9 9 mph 1008.4mb 46f 50f
12:30pm 0.7ft  -  9 16 mph 1008.4mb 46f 51f
12:20pm 0.3ft  -  13 18 mph 1008.8mb 46f 51f
12:10pm 0.3ft  -  11 16 mph 1008.3mb 47f 50f
12:00pm 0.3ft  -  9 11 mph 1007.9mb 46f 50f
11:50am 0.3ft  -  7 11 mph 1007.8mb 46f 49f
11:40am 0.3ft  -  9 13 mph 1007.6mb 46f 51f
11:30am 0.3ft  -  4 9 mph 1007.5mb 46f 51f
11:20am 0.3ft  -  2 4 mph 1007.6mb 46f 51f
11:10am 0.3ft  -  4 7 mph 1007.6mb 46f 51f
11:00am 0.3ft  -  4 7 mph 1007.8mb 46f 51f
10:50am 0.3ft  -  2 7 mph 1007.9mb 46f 53f
10:40am 0.3ft  -  4 7 mph 1008mb 46f 52f
10:30am 0.3ft  -  4 7 mph 1008.1mb 46f 50f
10:20am 0.3ft  -  4 7 mph 1008.3mb 46f 49f
10:10am 0.3ft  -  4 7 mph 1008.4mb 46f 49f
10:00am 0.3ft  -  4 4 mph 1008.6mb 46f 50f
9:50am 0.3ft  -  4 7 mph 1008.7mb 46f 52f
9:40am 0.3ft  -  9 13 mph 1008.8mb 46f 53f
9:30am 0.3ft  -  4 9 mph 1008.6mb 46f 54f
9:20am 0.3ft  -  4 4 mph 1008.4mb 46f 54f
9:10am 0.3ft  -  4 7 mph 1008.2mb 46f 53f
9:00am 0.3ft  -  4 4 mph 1008.4mb 46f 54f
8:50am 0.3ft  -  7 7 mph 1008.2mb 46f 54f
8:40am 0.3ft  -  7 7 mph 1008mb 46f 55f
8:30am 0.3ft  -  7 7 mph 1007.9mb 46f 54f
8:20am 0.3ft  -  7 7 mph 1007.6mb 46f 55f
8:10am 0.3ft  -  4 7 mph 1007.9mb 46f 54f
8:00am 0.3ft  -  4 4 mph 1008mb 46f 53f
7:50am 0.3ft  -  4 4 mph 1007.9mb 46f 53f
7:40am 0.3ft  -  4 4 mph 1008.1mb 46f 51f
7:30am 0.3ft  -  4 4 mph 1008.2mb 46f 50f
7:20am 0.3ft  -  4 7 mph 1008mb 46f 49f
7:10am 0.3ft  -  7 7 mph 1008.3mb 46f 49f
7:00am 0.3ft  -  7 9 mph 1008.3mb 46f 49f
6:50am 0.3ft  -  7 9 mph 1008.4mb 45f 49f
6:40am 0.3ft  -  7 7 mph 1008.5mb 45f 49f
6:30am 0.3ft  -  4 7 mph 1008.8mb 45f 49f
6:20am 0.3ft  -  4 7 mph 1008.8mb 45f 50f
6:10am 0.3ft  -  7 7 mph 1008.7mb 45f 50f
6:00am 0.3ft  -  7 7 mph 1008.8mb 45f 51f
5:50am 0.3ft  -  4 7 mph 1008.9mb 45f 51f
5:40am 0.3ft  -  4 4 mph 1009mb 45f 51f
5:30am 0.3ft  -  2 4 mph 1009.2mb 45f 51f
5:20am 0.3ft  -  2 2 mph 1009.4mb 45f 50f
5:10am 0.3ft  -  2 4 mph 1009.5mb 45f 49f
5:00am 0.3ft  -  4 4 mph 1009.4mb 45f 49f
4:50am 0.3ft  -  4 4 mph 1009.4mb 45f 50f
4:40am 0.3ft  -  2 4 mph 1009.4mb 45f 51f
4:30am 0.3ft  -  2 4 mph 1009.5mb 45f 51f
4:20am 0.3ft  -  4 4 mph 1009.6mb 45f 51f
4:10am 0.3ft  -  4 7 mph 1009.6mb 45f 50f
4:00am 0.3ft  -  2 7 mph 1009.7mb 45f 49f
3:50am 0.3ft  -  2 2 mph 1009.9mb 45f 49f
3:40am 0.3ft  -  4 4 mph 1010mb 45f 49f
3:30am 0.3ft  -  4 4 mph 1010mb 45f 50f
3:20am 0.3ft  -  4 4 mph 1010.1mb 45f 51f
3:10am  -   -  2 4 mph 1010.1mb 45f 51f
3:00am 0.3ft  -  2 4 mph 1010mb 45f 49f
2:50am 0.3ft  -  4 4 mph 1010.2mb 45f 50f
2:40am 0.3ft  -  4 4 mph 1010.3mb 45f 52f
2:30am  -   -  4 7 mph 1010.3mb 46f 53f
2:20am 0.3ft  -  7 7 mph 1010.4mb 46f 53f
2:10am 0.3ft  -  4 7 mph 1010.4mb 46f 52f
2:00am 0.3ft  -  4 4 mph 1010.4mb 46f 51f
1:50am 0.3ft  -  4 7 mph 1010.4mb 46f 51f
1:40am 0.3ft  -  7 7 mph 1010.5mb 46f 50f
1:30am 0.3ft  -  7 7 mph 1010.5mb 46f 49f
1:20am 0.3ft  -  7 7 mph 1010.5mb 46f 49f
1:10am 0.3ft  -  7 7 mph 1010.5mb 46f 49f
1:00am 0.3ft  -  7 7 mph 1010.7mb 46f 50f
12:50am 0.3ft  -  7 7 mph 1010.8mb 46f 50f
12:40am 0.3ft  -  7 7 mph 1011mb 46f 50f
12:30am 0.3ft  -  7 7 mph 1011mb 46f 51f
12:20am 0.3ft  -  7 7 mph 1011.2mb 46f 51f
12:10am 0.3ft  -  4 7 mph 1011.4mb 46f 51f
12:00am 0.3ft  -  4 4 mph 1011.4mb 46f 50f
Sat 05/27 11:50pm 0.3ft  -  7 7 mph 1011.5mb 46f 50f
11:40pm 0.3ft  -  7 7 mph 1011.5mb 46f 50f
11:30pm 0.3ft  -  7 7 mph 1011.4mb 46f 50f
11:20pm 0.3ft  -  7 7 mph 1011.2mb 46f 51f
11:10pm 0.3ft  -  4 7 mph 1011.2mb 46f 49f
11:00pm 0.3ft  -  4 7 mph 1011.2mb 46f 49f
10:50pm 0.3ft  -  4 7 mph 1011.1mb 46f 49f
10:40pm 0.3ft  -  7 7 mph 1011.2mb 46f 50f
10:30pm 0.3ft  -  7 7 mph 1011.4mb 46f 49f
10:20pm 0.3ft  -  7 7 mph 1011.4mb 46f 49f
10:10pm 0.3ft  -  7 7 mph 1011.4mb 46f 48f
10:00pm 0.3ft  -  7 7 mph 1011.5mb 46f 48f
9:50pm 0.3ft  -  7 7 mph 1011.7mb 46f 49f
9:40pm 0.3ft  -  4 7 mph 1011.9mb 46f 49f
9:30pm 0.3ft  -  4 7 mph 1012mb 46f 50f
9:20pm 0.3ft  -  4 7 mph 1012mb 46f 51f
9:10pm 0.3ft  -  4 7 mph 1012mb 46f 51f
9:00pm 0.3ft  -  7 7 mph 1011.8mb 46f 49f
8:50pm 0.3ft  -  4 7 mph 1011.9mb 46f 51f
8:40pm 0.3ft  -  2 4 mph 1012mb 46f 53f
8:30pm 0.3ft  -  2 2 mph 1012.2mb 46f 55f
8:20pm 0.3ft  -  2 2 mph 1012.4mb 46f 54f
8:10pm 0.3ft  -  2 2 mph 1012.5mb 46f 53f
8:00pm 0.3ft  -  2 4 mph 1012.5mb 46f 51f
7:50pm 0.3ft  -  2 2 mph 1012.2mb 46f 50f
7:40pm 0.3ft  -  2 4 mph 1012.1mb 46f 50f
7:30pm 0.3ft  -   -  2 mph 1012mb 46f 51f
7:20pm 0.3ft  -  2 4 mph 1012.2mb 46f 52f
7:10pm 0.3ft  -  2 4 mph 1012.2mb 46f 53f
7:00pm 0.3ft  -  2 4 mph 1012.2mb 46f 53f
6:50pm 0.3ft  -  2 2 mph 1012mb 46f 53f
6:30pm 0.3ft  -  4 4 mph 1012.4mb 46f 53f
6:20pm 0.3ft  -  4 4 mph 1012.3mb 46f 53f
6:10pm 0.3ft  -  2 2 mph 1012.3mb 46f 53f
6:00pm 0.3ft  -  2 4 mph 1012.5mb 46f 54f
5:50pm 0.3ft  -  4 4 mph 1012.6mb 46f 53f
5:40pm 0.3ft  -  7 7 mph 1012.8mb 46f 53f
5:30pm 0.3ft  -  7 7 mph 1013mb 46f 52f
5:20pm 0.3ft  -  4 7 mph 1013mb 46f 52f
5:10pm 0.3ft  -  4 7 mph 1013.1mb 46f 52f
5:00pm 0.3ft  -  7 9 mph 1013mb 46f 52f
4:50pm 0.3ft  -  7 9 mph 1013.1mb 46f 51f
4:40pm 0.3ft  -  4 7 mph 1013mb 46f 51f
4:30pm 0.3ft  -  7 7 mph 1013.1mb 46f 51f
4:20pm 0.3ft  -  4 7 mph 1013.2mb 46f 51f
4:10pm 0.3ft  -  7 7 mph 1013.3mb 46f 51f
4:00pm 0.3ft  -  7 7 mph 1013.3mb 45f 51f
3:50pm 0.3ft  -  4 7 mph 1013.3mb 45f 50f
3:40pm 0.3ft  -  7 7 mph 1013.4mb 45f 50f
3:30pm 0.3ft  -  7 9 mph 1013.4mb 45f 51f
3:20pm 0.3ft  -  7 7 mph 1013.3mb 45f 51f
3:10pm 0.3ft  -  4 4 mph 1013.3mb 45f 51f
3:00pm 0.3ft  -  4 7 mph 1013.2mb 45f 51f
2:50pm 0.7ft  -  7 7 mph 1013.2mb 46f 51f
2:40pm 0.7ft  -  7 9 mph 1013.3mb 46f 51f
2:30pm 0.3ft  -  7 9 mph 1013.3mb 46f 51f
2:20pm 0.7ft  -  7 9 mph 1013.2mb 46f 51f
2:10pm 0.3ft  -  9 9 mph 1013.2mb 45f 50f
2:00pm 0.3ft  -  7 9 mph 1013.1mb 45f 50f
1:50pm 0.3ft  -  7 9 mph 1013.2mb 45f 49f
1:40pm 0.3ft  -  7 9 mph 1013.3mb 45f 49f
1:30pm 0.3ft  -  7 9 mph 1013.3mb 45f 49f
1:20pm 0.3ft  -  9 9 mph 1013.2mb 45f 49f
1:10pm 0.3ft  -  9 9 mph 1013.3mb 46f 49f
1:00pm 0.3ft  -  9 11 mph 1013.3mb 46f 49f
12:50pm 0.7ft  -  7 9 mph 1013.2mb 46f 49f
12:40pm 0.3ft  -  7 9 mph 1013.1mb 46f 49f
12:30pm 0.3ft  -  7 9 mph 1013.2mb 45f 51f
12:20pm 0.3ft  -  9 11 mph 1013.1mb 45f 53f
12:10pm 0.3ft  -  4 7 mph 1013.3mb 46f 55f
12:00pm 0.3ft  -  4 7 mph 1013.3mb 45f 55f
11:50am 0.3ft  -  4 7 mph 1013.3mb 45f 56f
11:40am 0.3ft  -  4 7 mph 1013.1mb 45f 55f
11:30am 0.3ft  -  4 7 mph 1013.1mb 45f 53f
11:20am 0.3ft  -  4 7 mph 1013.1mb 45f 53f
11:10am 0.3ft  -  7 7 mph 1013.2mb 45f 54f
11:00am 0.3ft  -  7 7 mph 1013.4mb 45f 54f
10:50am 0.3ft  -  4 7 mph 1013.5mb 45f 52f
10:40am 0.3ft  -  2 4 mph 1013.6mb 44f 50f
10:30am 0.3ft  -  2 2 mph 1013.8mb 44f 49f
10:20am  -   -  2 4 mph 1013.8mb 44f 49f
10:10am 0.3ft  -  4 4 mph 1013.8mb 44f 48f
10:00am 0.3ft  -  4 4 mph 1013.9mb 44f 47f
9:50am 0.3ft  -  4 4 mph 1014mb 44f 49f
9:40am 0.3ft  -  4 4 mph 1014.1mb 44f 49f
9:30am 0.3ft  -  4 7 mph 1014.1mb 44f 48f
9:20am 0.3ft  -  4 4 mph 1014.3mb 44f 47f
9:10am 0.3ft  -  4 4 mph 1014.2mb 44f 46f
9:00am 0.3ft  -  4 4 mph 1014.5mb 44f 46f
8:50am  -   -  2 4 mph 1014.4mb 44f 48f
8:40am  -   -  2 2 mph 1014.4mb 43f 47f
8:30am  -   -   -  2 mph 1014.5mb 43f 46f
8:20am  -   -  2 2 mph 1014.5mb 43f 46f
8:10am  -   -  2 4 mph 1014.4mb 43f 45f
8:00am  -   -  4 4 mph 1014.4mb 43f 46f
7:50am  -   -   -  2 mph 1014.4mb 43f 47f
7:40am  -   -  2 2 mph 1014.2mb 43f 47f
7:30am  -   -  2 2 mph 1014.1mb 43f 47f
7:20am  -   -  2 2 mph 1014.1mb 43f 46f
7:10am  -   -  2 2 mph 1014mb 43f 46f
7:00am  -   -   -  2 mph 1013.8mb 43f 47f
6:50am 0.3ft  -   -  2 mph 1013.8mb 43f 46f
6:40am 0.3ft  -   -  2 mph 1013.8mb 43f 46f
6:30am 0.3ft  -  2 4 mph 1013.7mb 43f 46f
6:20am 0.3ft  -  4 4 mph 1013.7mb 43f 46f
6:10am 0.3ft  -  2 2 mph 1013.9mb 43f 44f
6:00am 0.3ft  -  2 2 mph 1013.8mb 43f 44f
5:50am 0.3ft  -  2 2 mph 1013.6mb 43f 46f
5:40am 0.3ft  -  2 4 mph 1013.6mb 43f 46f
5:30am 0.3ft  -  2 4 mph 1013.5mb 43f 45f
5:20am 0.3ft  -  2 4 mph 1013.4mb 43f 45f
5:10am 0.3ft  -  2 2 mph 1013.3mb 43f 45f
5:00am 0.3ft  -  2 2 mph 1013.5mb 43f 46f
4:50am 0.3ft  -  2 4 mph 1013.5mb 43f 45f
4:40am 0.3ft  -  2 4 mph 1013.3mb 43f 44f
4:30am 0.3ft  -  2 2 mph 1013.3mb 43f 44f
4:20am 0.3ft  -   -  2 mph 1013.3mb 43f 44f
4:10am 0.3ft  -  2 2 mph 1013.3mb 43f 45f
4:00am 0.3ft  -  2 2 mph 1013.2mb 43f 44f
3:50am 0.3ft  -  2 2 mph 1013.1mb 43f 45f
3:40am 0.3ft  -  2 4 mph 1013.1mb 43f 46f
3:30am 0.3ft  -  2 2 mph 1013.2mb 43f 46f
3:20am 0.3ft  -   -  2 mph 1013.4mb 43f 46f
3:10am 0.3ft  -   -  2 mph 1013.4mb 43f 46f
3:00am 0.3ft  -  2 4 mph 1013.7mb 43f 45f
2:50am 0.3ft  -  2 4 mph 1013.6mb 43f 45f
2:40am 0.3ft  -  2 4 mph 1013.4mb 43f 45f
2:30am 0.3ft  -   -  2 mph 1013.3mb 43f 45f
2:20am 0.3ft  -  2 2 mph 1013.1mb 43f 46f
2:10am 0.3ft  -  2 4 mph 1013.2mb 43f 47f
2:00am 0.3ft  -   -  2 mph 1013.2mb 43f 46f
1:50am 0.3ft  -   -  4 mph 1013.3mb 43f 47f
1:40am 0.3ft  -  2 2 mph 1013.4mb 43f 47f
1:30am 0.3ft  -  2 2 mph 1013.3mb 43f 47f
1:20am 0.3ft  -   -  2 mph 1013.4mb 43f 47f
1:10am 0.3ft  -  4 7 mph 1013.2mb 43f 47f
1:00am 0.3ft  -  2 4 mph 1013.5mb 43f 47f
12:50am 0.3ft  -  2 7 mph 1013.5mb 43f 47f
12:40am 0.3ft  -  4 4 mph 1013.3mb 43f 47f
12:30am 0.3ft  -  4 4 mph 1013.3mb 43f 47f
12:20am 0.3ft  -  2 4 mph 1013.4mb 43f 47f
12:10am 0.3ft  -  2 4 mph 1013.5mb 43f 46f
12:00am 0.3ft  -  4 4 mph 1013.4mb 43f 45f
Fri 05/26 11:50pm 0.3ft  -  4 7 mph 1013.4mb 43f 45f
11:40pm 0.3ft  -  4 7 mph 1013.4mb 43f 46f
11:30pm 0.3ft  -  4 7 mph 1013.4mb 43f 45f
11:20pm 0.3ft  -  4 4 mph 1013.3mb 43f 45f
11:10pm 0.3ft  -  4 4 mph 1013.3mb 43f 44f
11:00pm 0.3ft  -  4 4 mph 1013.3mb 43f 45f
10:50pm 0.3ft  -  4 7 mph 1013.3mb 43f 45f
10:40pm 0.3ft  -  4 7 mph 1013.3mb 43f 44f
10:30pm 0.3ft  -  4 7 mph 1013.3mb 43f 45f
10:20pm 0.3ft  -  4 7 mph 1013.2mb 43f 45f
10:10pm 0.3ft  -  4 7 mph 1013.2mb 43f 45f
10:00pm 0.3ft  -  4 4 mph 1013mb 43f 45f
9:50pm 0.3ft  -  7 7 mph 1013mb 43f 46f
9:40pm 0.3ft  -  4 7 mph 1013mb 43f 47f
9:30pm 0.3ft  -  2 4 mph 1013mb 44f 47f
9:20pm 0.3ft  -  2 2 mph 1013mb 44f 47f
9:10pm 0.3ft  -  2 4 mph 1013mb 44f 46f
9:00pm 0.3ft  -  2 4 mph 1012.9mb 44f 46f
8:50pm 0.3ft  -  2 4 mph 1012.8mb 44f 46f
8:40pm 0.3ft  -  4 4 mph 1012.8mb 43f 47f
8:30pm 0.3ft  -  4 4 mph 1012.6mb 43f 47f
8:20pm 0.7ft  -  2 2 mph 1012.6mb 43f 46f
8:10pm 0.3ft  -  2 4 mph 1012.5mb 44f 46f
8:00pm 0.7ft  -  2 2 mph 1012.5mb 44f 46f
7:50pm 0.7ft  -  4 4 mph 1012.5mb 44f 46f
7:40pm 0.7ft  -  4 4 mph 1012.5mb 44f 46f
7:30pm 0.7ft  -  4 7 mph 1012.5mb 44f 46f
7:20pm 0.7ft  -  4 4 mph 1012.3mb 44f 46f
7:10pm 0.7ft  -  4 4 mph 1012.1mb 44f 47f
7:00pm 0.7ft  -  4 4 mph 1012.2mb 44f 46f
6:50pm 0.7ft  -  7 7 mph 1012.2mb 44f 46f
6:30pm 0.7ft  -  4 7 mph 1012.1mb 44f 46f
6:20pm 0.7ft  -  4 7 mph 1012.2mb 44f 46f
6:10pm 0.7ft  -  4 7 mph 1012.2mb 44f 46f
6:00pm 0.7ft  -  4 7 mph 1012.1mb 44f 45f
5:50pm 0.7ft  -  4 7 mph 1012mb 44f 45f
5:40pm 0.7ft  -  4 4 mph 1011.9mb 44f 45f
5:30pm 0.7ft  -  4 4 mph 1011.8mb 44f 45f
5:20pm 0.7ft  -  2 4 mph 1011.8mb 44f 45f
5:10pm 0.7ft  -  2 4 mph 1012mb 44f 45f
5:00pm 0.7ft  -  4 4 mph 1012mb 44f 45f
4:50pm 0.7ft  -  4 7 mph 1012mb 43f 45f
4:40pm 0.7ft  -  7 7 mph 1012mb 43f 45f
4:30pm 0.7ft  -  4 7 mph 1012mb 43f 45f
4:20pm 0.7ft  -  4 7 mph 1012.1mb 43f 45f
4:10pm 0.7ft  -  7 7 mph 1012mb 43f 45f
4:00pm 0.7ft  -  4 7 mph 1012.1mb 43f 45f
3:50pm 0.7ft  -  4 7 mph 1012.1mb 43f 45f
3:40pm 0.7ft  -  4 7 mph 1012.1mb 43f 45f
3:30pm 0.7ft  -  4 7 mph 1012.2mb 43f 45f
3:20pm 0.7ft  -  7 9 mph 1012.3mb 43f 44f
3:10pm 0.7ft  -  4 7 mph 1012.2mb 43f 44f
3:00pm 0.7ft  -  4 7 mph 1012.2mb 43f 43f
2:50pm 0.7ft  -  7 7 mph 1012.1mb 43f 43f
2:40pm 0.7ft  -  7 9 mph 1012.2mb 43f 43f
2:30pm 0.7ft  -  9 11 mph 1012.1mb 43f 43f
2:20pm 0.7ft  -  9 11 mph 1012mb 43f 44f
2:10pm 0.7ft  -  9 9 mph 1011.8mb 43f 44f
2:00pm 0.7ft  -  7 7 mph 1011.8mb 43f 44f
1:50pm 0.7ft  -  4 7 mph 1011.9mb 43f 44f
1:40pm 0.7ft  -  4 7 mph 1011.9mb 43f 44f
1:30pm 0.7ft  -  7 9 mph 1012mb 43f 44f
1:20pm 0.7ft  -  7 9 mph 1012mb 43f 43f
1:10pm 0.7ft  -  7 9 mph 1012mb 43f 43f
1:00pm 0.7ft  -  7 7 mph 1012mb 43f 43f
12:50pm 0.7ft  -  7 9 mph 1011.9mb 43f 43f
12:40pm 0.7ft  -  7 7 mph 1011.9mb 43f 43f
12:30pm 0.7ft  -  4 7 mph 1012.1mb 42f 43f
12:20pm 0.7ft  -  4 7 mph 1012.2mb 42f 43f
12:10pm 1ft 2s 7 7 mph 1012.2mb 42f 43f
12:00pm 1ft 2s 7 9 mph 1012.1mb 42f 43f
11:50am 1ft 2s 7 9 mph 1012.3mb 42f 43f
11:40am 1ft 2s 7 9 mph 1012.2mb 42f 43f
11:30am 1.3ft 3s 7 9 mph 1012.3mb 42f 43f
11:20am 1.3ft 2s 9 13 mph 1012.2mb 42f 43f
11:10am 1.3ft 2s 13 18 mph 1012.1mb 42f 43f
11:00am 1ft 2s 13 18 mph 1012mb 42f 43f
10:50am 1ft  -  13 16 mph 1012mb 42f 43f
10:40am 1ft 2s 11 13 mph 1011.9mb 42f 43f
10:30am 1ft 2s 7 11 mph 1011.8mb 42f 43f
10:20am 1ft 2s 7 9 mph 1011.7mb 42f 43f
10:10am 1ft 2s 9 9 mph 1011.7mb 42f 43f
10:00am 1ft 2s 9 11 mph 1011.8mb 42f 43f
9:50am 1ft 2s 11 16 mph 1011.9mb 42f 42f
9:40am 1ft  -  11 18 mph 1011.8mb 42f 42f
9:30am 0.7ft  -  11 16 mph 1011.7mb 42f 42f
9:20am 0.3ft  -  11 16 mph 1011.7mb 42f 43f
9:10am 0.3ft  -  11 13 mph 1011.6mb 42f 43f
9:00am 0.3ft  -  7 9 mph 1011.5mb 42f 43f
8:50am 0.3ft  -  7 11 mph 1011.5mb 42f 43f
8:40am 0.3ft  -  7 9 mph 1011.5mb 42f 43f
8:30am 0.3ft  -  7 9 mph 1011.6mb 42f 43f
8:20am 0.3ft  -  7 9 mph 1011.6mb 42f 44f
8:10am 0.3ft  -  7 9 mph 1011.5mb 42f 44f
8:00am 0.3ft  -  7 7 mph 1011.6mb 42f 44f
7:50am 0.7ft  -  7 9 mph 1011.6mb 42f 44f
7:40am 0.3ft  -  7 9 mph 1011.5mb 42f 44f
7:30am 0.7ft  -  9 11 mph 1011.6mb 42f 44f
7:20am 0.7ft  -  9 9 mph 1011.6mb 42f 44f
7:10am 0.7ft  -  7 9 mph 1011.5mb 42f 44f
7:00am 0.7ft  -  9 11 mph 1011.4mb 42f 44f
6:50am 0.7ft  -  9 11 mph 1011.3mb 42f 44f
6:40am 0.7ft  -  9 11 mph 1011mb 42f 44f
6:30am 0.7ft  -  11 13 mph 1011mb 42f 44f
6:20am 0.7ft  -  11 13 mph 1011mb 42f 44f
6:10am 0.7ft  -  9 11 mph 1010.8mb 42f 44f
6:00am 0.7ft  -  9 9 mph 1010.5mb 42f 45f
5:50am 0.7ft  -  9 9 mph 1010.5mb 42f 45f
5:40am 0.7ft  -  9 11 mph 1010.4mb 42f 45f
5:30am 0.7ft  -  9 11 mph 1010.3mb 42f 45f
5:20am 0.7ft  -  9 11 mph 1010.2mb 42f 45f
5:10am 0.7ft  -  9 9 mph 1010.1mb 42f 46f
5:00am 0.3ft  -  9 9 mph 1010mb 42f 45f
4:50am 0.7ft  -  7 9 mph 1010.1mb 42f 44f
4:40am 0.3ft  -  7 9 mph 1010mb 42f 44f
4:30am 0.3ft  -  7 9 mph 1010mb 42f 44f
4:20am 0.7ft  -  7 9 mph 1009.8mb 42f 44f
4:10am 0.7ft  -  7 9 mph 1009.8mb 42f 44f
4:00am 0.7ft  -  7 9 mph 1009.8mb 42f 44f
3:50am 0.7ft  -  7 9 mph 1009.7mb 42f 44f
3:40am 0.7ft  -  9 9 mph 1009.5mb 42f 44f
3:30am 0.7ft  -  9 9 mph 1009.5mb 42f 44f
3:20am 0.3ft  -  7 9 mph 1009.5mb 42f 44f
3:10am 0.3ft  -  7 9 mph 1009.4mb 42f 45f
3:00am 0.3ft  -  7 9 mph 1009.3mb 42f 45f
2:50am 0.3ft  -  7 9 mph 1009.2mb 42f 45f
2:40am 0.3ft  -  7 9 mph 1009.1mb 42f 45f
2:30am 0.7ft  -  7 9 mph 1009.1mb 42f 45f
2:20am 0.3ft  -  7 7 mph 1008.9mb 42f 44f
2:10am 0.3ft  -  4 7 mph 1008.9mb 42f 44f
2:00am 0.7ft  -  4 7 mph 1008.9mb 42f 44f
1:50am 0.7ft  -  4 7 mph 1008.7mb 42f 44f
1:40am 0.7ft  -  7 9 mph 1008.8mb 42f 44f
1:30am 0.7ft  -  7 9 mph 1008.9mb 42f 44f
1:20am 0.7ft  -  7 9 mph 1008.8mb 42f 43f
1:10am 0.7ft  -  7 9 mph 1008.7mb 42f 43f
1:00am 0.7ft  -  9 9 mph 1008.7mb 42f 44f
12:50am 0.7ft  -  9 9 mph 1008.9mb 42f 44f
12:40am 0.7ft  -  9 9 mph 1008.7mb 42f 44f
12:30am 0.7ft  -  9 11 mph 1008.9mb 42f 44f
12:20am 0.7ft  -  9 11 mph 1008.9mb 42f 44f
12:10am 0.3ft  -  7 9 mph 1008.9mb 42f 44f
12:00am 0.3ft  -  7 9 mph 1008.9mb 42f 44f
Thu 05/25 11:50pm 0.3ft  -  7 9 mph 1008.9mb 42f 44f
11:40pm 0.3ft  -  7 7 mph 1008.8mb 42f 44f
11:30pm 0.3ft  -  7 9 mph 1008.7mb 42f 44f
11:20pm 0.3ft  -  7 9 mph 1008.7mb 42f 44f
11:10pm 0.3ft  -  7 9 mph 1008.7mb 42f 45f
11:00pm 0.3ft  -  7 9 mph 1008.5mb 42f 45f
10:50pm 0.3ft  -  7 9 mph 1008.5mb 42f 46f
10:40pm 0.3ft  -  4 7 mph 1008.4mb 42f 46f
10:30pm 0.3ft  -  4 7 mph 1008.3mb 42f 45f
10:20pm 0.3ft  -  4 7 mph 1008.3mb 42f 47f
10:10pm 0.3ft  -  2 4 mph 1008.3mb 42f 49f
10:00pm 0.3ft  -  2 4 mph 1008.1mb 42f 51f
9:50pm 0.3ft  -  2 4 mph 1008mb 42f 52f
9:40pm 0.3ft  -  4 4 mph 1007.9mb 42f 51f
9:30pm 0.3ft  -  4 4 mph 1007.8mb 42f 52f
9:20pm 0.3ft  -  4 4 mph 1007.5mb 42f 51f
9:10pm 0.3ft  -  4 7 mph 1007.4mb 42f 49f
9:00pm 0.3ft  -  4 7 mph 1007.3mb 42f 49f
8:50pm 0.3ft  -  4 7 mph 1007.2mb 42f 50f
8:40pm 0.7ft  -  4 7 mph 1007.1mb 42f 51f
8:30pm 0.7ft  -  4 7 mph 1007mb 42f 51f
8:20pm 0.7ft  -  7 7 mph 1006.9mb 42f 51f
8:10pm 0.7ft  -  7 7 mph 1006.8mb 42f 51f
8:00pm 0.7ft  -  7 7 mph 1006.6mb 42f 50f
7:50pm 0.7ft  -  7 9 mph 1006.5mb 42f 51f
7:40pm 0.7ft  -  7 9 mph 1006.3mb 42f 51f
7:30pm 0.7ft  -  7 9 mph 1006.2mb 42f 49f
7:20pm 0.7ft  -  7 7 mph 1006.1mb 42f 48f
7:10pm 0.7ft  -  7 9 mph 1006mb 42f 47f
7:00pm 0.7ft  -  9 11 mph 1006mb 42f 49f
6:50pm 0.7ft  -  9 11 mph 1005.8mb 42f 50f
6:40pm 0.7ft  -  9 9 mph 1005.7mb 42f 50f
6:30pm 0.7ft  -  9 13 mph 1005.6mb 42f 50f
6:20pm 0.7ft  -  9 13 mph 1005.6mb 42f 51f
6:10pm 0.7ft  -  9 13 mph 1005.7mb 42f 51f
6:00pm 0.7ft  -  9 18 mph 1005.5mb 42f 51f
5:50pm 0.7ft  -  9 11 mph 1005.5mb 42f 51f
5:40pm 1ft  -  9 11 mph 1005.5mb 42f 51f
5:30pm 1ft 2s 7 11 mph 1005.5mb 42f 51f
5:20pm 1ft 2s 7 9 mph 1005.5mb 42f 51f
5:10pm 1ft 2s 9 11 mph 1005.4mb 42f 50f
5:00pm 1ft 2s 9 11 mph 1005.4mb 42f 50f
4:50pm 1ft 2s 7 9 mph 1005.4mb 42f 50f
4:40pm 1ft 2s 7 9 mph 1005.3mb 42f 50f
4:30pm 1ft 2s 7 9 mph 1005.3mb 42f 51f
4:20pm 1ft  -  7 9 mph 1005.2mb 42f 51f
4:10pm 1ft 2s 9 13 mph 1005.2mb 42f 51f
4:00pm 1.3ft 2s 9 13 mph 1005.2mb 42f 51f
3:50pm 1ft 2s 11 13 mph 1005.1mb 42f 50f
3:40pm 1.3ft 2s 11 16 mph 1005mb 42f 51f
3:30pm 1.3ft 2s 13 16 mph 1005mb 42f 51f
3:20pm 1ft 2s 13 18 mph 1005mb 42f 52f
3:10pm 1ft 2s 13 18 mph 1004.9mb 42f 51f
3:00pm 1ft  -  13 18 mph 1005mb 42f 52f
2:50pm 1ft 2s 13 20 mph 1004.9mb 42f 52f
2:40pm 1ft  -  11 13 mph 1004.9mb 42f 51f
2:30pm 1ft  -  9 13 mph 1005mb 42f 50f
2:20pm 1ft  -  9 11 mph 1005.1mb 42f 50f
2:10pm 1ft  -  9 11 mph 1005.2mb 42f 50f
2:00pm 1ft  -  11 13 mph 1005.2mb 42f 50f
1:50pm 1ft  -  9 16 mph 1005.1mb 42f 51f
1:40pm 1ft  -  11 16 mph 1005.1mb 42f 52f
1:30pm 1ft  -  11 18 mph 1005.1mb 42f 51f
1:20pm 1ft 2s 11 16 mph 1005.1mb 42f 53f
1:10pm 1ft 2s 13 20 mph 1005.1mb 42f 53f
1:00pm 1ft 2s 11 16 mph 1005.1mb 42f 52f
12:50pm 1ft  -  11 13 mph 1005.1mb 42f 52f
12:40pm 1ft  -  11 13 mph 1005.1mb 42f 52f
12:30pm 1ft 2s 11 13 mph 1005.2mb 42f 52f
12:20pm 1ft  -  9 13 mph 1005.2mb 42f 52f
12:10pm 1ft  -  11 16 mph 1005.3mb 42f 52f
12:00pm 1ft  -  9 13 mph 1005.2mb 42f 52f
11:50am 1ft 2s 11 16 mph 1005.2mb 42f 52f
11:40am 1ft 2s 13 18 mph 1005.2mb 42f 53f
11:30am 1ft 2s 13 18 mph 1005.2mb 42f 52f
11:20am 1ft 2s 11 18 mph 1005.2mb 42f 52f
11:10am 1ft 2s 11 16 mph 1005.2mb 42f 51f
11:00am 1ft 2s 7 9 mph 1005.2mb 42f 50f
10:50am 1ft 2s 9 11 mph 1005.2mb 42f 51f
10:40am 1ft 2s 7 11 mph 1005.2mb 42f 51f
10:30am 1ft 2s 9 13 mph 1005.3mb 42f 51f
10:20am 1ft  -  11 20 mph 1005.3mb 42f 51f
10:10am 1ft  -  9 13 mph 1005.3mb 42f 52f
10:00am 0.7ft  -  7 11 mph 1005.4mb 42f 51f
9:50am 0.7ft  -  9 13 mph 1005.4mb 42f 51f
9:40am 0.7ft  -  7 11 mph 1005.4mb 42f 51f
9:30am 0.7ft  -  4 9 mph 1005.4mb 42f 50f
9:20am 0.7ft  -  7 9 mph 1005.5mb 42f 50f
9:10am 0.7ft  -  4 9 mph 1005.6mb 42f 51f
9:00am 0.7ft  -   -  4 mph 1005.8mb 42f 53f
8:50am 0.7ft  -   -  2 mph 1005.6mb 42f 52f
8:40am 0.7ft  -   -  2 mph 1005.6mb 42f 52f
8:30am 0.7ft  -  2 4 mph 1005.6mb 42f 51f
8:20am 0.7ft  -  2 4 mph 1005.7mb 42f 50f
8:10am 0.7ft  -  2 2 mph 1005.6mb 42f 49f
8:00am 0.7ft  -   -  2 mph 1005.7mb 42f 49f
7:50am 0.7ft  -  2 4 mph 1005.8mb 42f 49f
7:40am 0.7ft  -   -  2 mph 1005.8mb 42f 48f
7:30am 0.7ft  -   -  2 mph 1005.8mb 42f 48f
7:20am 1ft 3s 4 7 mph 1005.8mb 42f 48f
7:10am 1ft 3s 4 7 mph 1005.8mb 42f 48f
7:00am 1ft 3s 4 7 mph 1005.8mb 42f 48f
6:50am 1ft  -  7 9 mph 1005.7mb 42f 49f
6:40am 1ft 2s 7 9 mph 1005.6mb 42f 49f
6:30am 1ft 2s 9 11 mph 1005.5mb 42f 50f
6:20am 1ft 2s 9 13 mph 1005.4mb 42f 50f
6:10am 1ft  -  11 13 mph 1005.3mb 42f 50f
6:00am 1ft 2s 9 13 mph 1005.3mb 42f 50f
5:50am 1ft 2s 9 11 mph 1005.3mb 42f 49f
5:40am 1ft 2s 9 11 mph 1005.3mb 42f 50f
5:30am 1ft 2s 9 11 mph 1005.3mb 42f 50f
5:20am 1ft  -  9 13 mph 1005.3mb 42f 50f
5:10am 1ft 2s 4 13 mph 1005.3mb 42f 47f
5:00am 1ft  -  4 7 mph 1005.3mb 42f 48f
4:50am 1ft 2s 4 7 mph 1005.2mb 42f 47f
4:40am 1ft 2s 7 7 mph 1005.2mb 42f 47f
4:30am 1ft 2s 4 7 mph 1005.1mb 42f 46f
4:20am 1ft 2s 4 7 mph 1005mb 42f 46f
4:10am 1ft 2s 7 9 mph 1005.1mb 42f 47f
4:00am 1ft 2s 7 9 mph 1005mb 42f 47f
3:50am 1ft 2s 9 11 mph 1005mb 42f 48f
3:40am 1ft 2s 9 13 mph 1004.9mb 42f 49f
3:30am 1ft 2s 11 18 mph 1005mb 42f 48f
3:20am 1ft 2s 9 13 mph 1005mb 42f 48f
3:10am 1ft  -  9 11 mph 1005.1mb 42f 47f
3:00am 1ft  -  9 9 mph 1005.1mb 42f 47f
2:50am 1ft  -  9 13 mph 1005.2mb 42f 48f
2:40am 0.7ft  -  11 13 mph 1005.2mb 42f 48f
2:30am 0.7ft  -  4 11 mph 1005.4mb 42f 48f
2:20am 0.7ft  -  4 7 mph 1005.4mb 42f 49f
2:10am 0.7ft  -  2 4 mph 1005.4mb 42f 50f
2:00am 0.7ft  -  2 2 mph 1005.5mb 42f 49f
1:50am 0.7ft  -  2 2 mph 1005.7mb 42f 47f
1:40am 0.7ft  -  4 4 mph 1005.7mb 42f 45f
1:30am 0.7ft  -  2 4 mph 1005.8mb 42f 47f
1:20am 0.7ft  -  4 7 mph 1005.8mb 42f 47f
1:10am 1ft  -  7 9 mph 1005.8mb 42f 48f
1:00am 0.7ft  -  9 11 mph 1005.8mb 42f 49f
12:50am 1ft 2s 9 11 mph 1005.8mb 42f 49f
12:40am 0.7ft  -  9 9 mph 1005.9mb 42f 48f
12:30am 0.7ft  -  4 7 mph 1006mb 42f 47f
12:20am 0.7ft  -  4 7 mph 1005.9mb 42f 49f
12:10am 0.7ft  -  2 4 mph 1006mb 42f 48f
12:00am 0.7ft  -   -  2 mph 1006.2mb 42f 47f
Wed 05/24 11:50pm 0.7ft  -  2 2 mph 1006.3mb 42f 47f
11:40pm 0.7ft  -  2 4 mph 1006.2mb 42f 48f
11:30pm 0.7ft  -  2 4 mph 1006.2mb 42f 49f
11:20pm 0.7ft  -  2 4 mph 1006.3mb 42f 50f
11:10pm 0.3ft  -  2 2 mph 1006.3mb 42f 49f
11:00pm 0.7ft  -   -  2 mph 1006.4mb 42f 49f
10:50pm 0.3ft  -   -  2 mph 1006.4mb 42f 50f